sensor_id;sensor_type;location;lat;lon;timestamp;P1;durP1;ratioP1;P2;durP2;ratioP2
5752;SDS011;2901;42.140;24.760;2023-12-28T00:01:07;15.67;;;9.73;;
5752;SDS011;2901;42.140;24.760;2023-12-28T00:03:33;12.80;;;8.73;;
5752;SDS011;2901;42.140;24.760;2023-12-28T00:05:58;15.03;;;8.63;;
5752;SDS011;2901;42.140;24.760;2023-12-28T00:08:24;8.77;;;7.90;;
5752;SDS011;2901;42.140;24.760;2023-12-28T00:10:49;10.80;;;7.83;;
5752;SDS011;2901;42.140;24.760;2023-12-28T00:13:14;10.10;;;8.53;;
5752;SDS011;2901;42.140;24.760;2023-12-28T00:15:40;10.90;;;8.37;;
5752;SDS011;2901;42.140;24.760;2023-12-28T00:18:05;11.80;;;9.30;;
5752;SDS011;2901;42.140;24.760;2023-12-28T00:20:31;17.00;;;8.03;;
5752;SDS011;2901;42.140;24.760;2023-12-28T00:22:56;11.17;;;8.20;;
5752;SDS011;2901;42.140;24.760;2023-12-28T00:25:23;9.63;;;7.70;;
5752;SDS011;2901;42.140;24.760;2023-12-28T00:27:48;11.67;;;8.37;;
5752;SDS011;2901;42.140;24.760;2023-12-28T00:30:14;10.40;;;8.30;;
5752;SDS011;2901;42.140;24.760;2023-12-28T00:32:42;10.87;;;7.53;;
5752;SDS011;2901;42.140;24.760;2023-12-28T00:35:09;10.23;;;8.07;;
5752;SDS011;2901;42.140;24.760;2023-12-28T00:37:35;14.20;;;8.93;;
5752;SDS011;2901;42.140;24.760;2023-12-28T00:40:00;9.20;;;8.37;;
5752;SDS011;2901;42.140;24.760;2023-12-28T00:42:26;10.00;;;7.20;;
5752;SDS011;2901;42.140;24.760;2023-12-28T00:44:51;8.43;;;7.67;;
5752;SDS011;2901;42.140;24.760;2023-12-28T00:47:17;8.53;;;6.50;;
5752;SDS011;2901;42.140;24.760;2023-12-28T00:49:43;15.77;;;7.27;;
5752;SDS011;2901;42.140;24.760;2023-12-28T00:52:08;5.60;;;5.10;;
5752;SDS011;2901;42.140;24.760;2023-12-28T00:54:34;5.37;;;4.87;;
5752;SDS011;2901;42.140;24.760;2023-12-28T00:57:02;8.00;;;5.53;;
5752;SDS011;2901;42.140;24.760;2023-12-28T00:59:28;3.93;;;3.63;;
5752;SDS011;2901;42.140;24.760;2023-12-28T01:01:54;4.07;;;3.50;;
5752;SDS011;2901;42.140;24.760;2023-12-28T01:04:20;6.47;;;4.67;;
5752;SDS011;2901;42.140;24.760;2023-12-28T01:06:48;5.33;;;4.40;;
5752;SDS011;2901;42.140;24.760;2023-12-28T01:09:23;8.60;;;5.23;;
5752;SDS011;2901;42.140;24.760;2023-12-28T01:11:49;6.17;;;5.37;;
5752;SDS011;2901;42.140;24.760;2023-12-28T01:14:15;5.90;;;4.47;;
5752;SDS011;2901;42.140;24.760;2023-12-28T01:16:40;5.40;;;4.90;;
5752;SDS011;2901;42.140;24.760;2023-12-28T01:19:06;5.10;;;4.80;;
5752;SDS011;2901;42.140;24.760;2023-12-28T01:21:32;5.13;;;4.73;;
5752;SDS011;2901;42.140;24.760;2023-12-28T01:23:57;4.90;;;4.53;;
5752;SDS011;2901;42.140;24.760;2023-12-28T01:26:23;5.10;;;4.80;;
5752;SDS011;2901;42.140;24.760;2023-12-28T01:28:48;6.33;;;4.97;;
5752;SDS011;2901;42.140;24.760;2023-12-28T01:31:13;6.87;;;4.87;;
5752;SDS011;2901;42.140;24.760;2023-12-28T01:33:39;6.30;;;5.10;;
5752;SDS011;2901;42.140;24.760;2023-12-28T01:36:20;6.03;;;5.47;;
5752;SDS011;2901;42.140;24.760;2023-12-28T01:38:46;5.13;;;4.83;;
5752;SDS011;2901;42.140;24.760;2023-12-28T01:41:12;5.57;;;5.07;;
5752;SDS011;2901;42.140;24.760;2023-12-28T01:43:40;6.93;;;5.97;;
5752;SDS011;2901;42.140;24.760;2023-12-28T01:46:10;7.67;;;6.10;;
5752;SDS011;2901;42.140;24.760;2023-12-28T01:48:40;8.67;;;5.70;;
5752;SDS011;2901;42.140;24.760;2023-12-28T01:51:07;7.43;;;6.13;;
5752;SDS011;2901;42.140;24.760;2023-12-28T01:53:32;9.10;;;5.90;;
5752;SDS011;2901;42.140;24.760;2023-12-28T01:55:58;8.87;;;6.53;;
5752;SDS011;2901;42.140;24.760;2023-12-28T01:58:24;9.20;;;5.33;;
5752;SDS011;2901;42.140;24.760;2023-12-28T02:00:55;8.97;;;5.53;;
5752;SDS011;2901;42.140;24.760;2023-12-28T02:03:21;7.23;;;5.70;;
5752;SDS011;2901;42.140;24.760;2023-12-28T02:05:46;8.47;;;6.20;;
5752;SDS011;2901;42.140;24.760;2023-12-28T02:08:12;5.73;;;5.23;;
5752;SDS011;2901;42.140;24.760;2023-12-28T02:10:38;8.23;;;4.97;;
5752;SDS011;2901;42.140;24.760;2023-12-28T02:13:04;11.37;;;6.87;;
5752;SDS011;2901;42.140;24.760;2023-12-28T02:15:29;6.20;;;5.70;;
5752;SDS011;2901;42.140;24.760;2023-12-28T02:17:57;12.17;;;6.73;;
5752;SDS011;2901;42.140;24.760;2023-12-28T02:20:29;10.13;;;6.20;;
5752;SDS011;2901;42.140;24.760;2023-12-28T02:22:55;17.90;;;7.87;;
5752;SDS011;2901;42.140;24.760;2023-12-28T02:25:21;14.30;;;6.90;;
5752;SDS011;2901;42.140;24.760;2023-12-28T02:27:47;12.03;;;7.33;;
5752;SDS011;2901;42.140;24.760;2023-12-28T02:30:15;8.77;;;6.70;;
5752;SDS011;2901;42.140;24.760;2023-12-28T02:35:33;9.20;;;7.33;;
5752;SDS011;2901;42.140;24.760;2023-12-28T02:38:10;9.50;;;6.90;;
5752;SDS011;2901;42.140;24.760;2023-12-28T02:40:40;12.07;;;6.23;;
5752;SDS011;2901;42.140;24.760;2023-12-28T02:43:09;11.07;;;6.87;;
5752;SDS011;2901;42.140;24.760;2023-12-28T02:45:35;9.90;;;7.50;;
5752;SDS011;2901;42.140;24.760;2023-12-28T02:48:02;12.20;;;7.37;;
5752;SDS011;2901;42.140;24.760;2023-12-28T02:50:28;9.13;;;6.83;;
5752;SDS011;2901;42.140;24.760;2023-12-28T02:52:55;7.53;;;6.43;;
5752;SDS011;2901;42.140;24.760;2023-12-28T02:55:24;8.57;;;7.50;;
5752;SDS011;2901;42.140;24.760;2023-12-28T02:57:54;9.13;;;7.43;;
5752;SDS011;2901;42.140;24.760;2023-12-28T03:00:21;13.40;;;6.90;;
5752;SDS011;2901;42.140;24.760;2023-12-28T03:02:46;10.77;;;6.83;;
5752;SDS011;2901;42.140;24.760;2023-12-28T03:05:12;10.17;;;7.63;;
5752;SDS011;2901;42.140;24.760;2023-12-28T03:07:37;8.73;;;6.67;;
5752;SDS011;2901;42.140;24.760;2023-12-28T03:10:03;9.73;;;6.80;;
5752;SDS011;2901;42.140;24.760;2023-12-28T03:12:30;8.67;;;7.17;;
5752;SDS011;2901;42.140;24.760;2023-12-28T03:14:55;10.77;;;8.03;;
5752;SDS011;2901;42.140;24.760;2023-12-28T03:17:21;11.33;;;6.80;;
5752;SDS011;2901;42.140;24.760;2023-12-28T03:19:46;9.90;;;7.20;;
5752;SDS011;2901;42.140;24.760;2023-12-28T03:22:12;7.67;;;7.00;;
5752;SDS011;2901;42.140;24.760;2023-12-28T03:24:37;7.93;;;7.23;;
5752;SDS011;2901;42.140;24.760;2023-12-28T03:27:03;8.93;;;8.07;;
5752;SDS011;2901;42.140;24.760;2023-12-28T03:29:29;8.07;;;7.23;;
5752;SDS011;2901;42.140;24.760;2023-12-28T03:31:54;12.50;;;7.93;;
5752;SDS011;2901;42.140;24.760;2023-12-28T03:34:20;10.90;;;8.57;;
5752;SDS011;2901;42.140;24.760;2023-12-28T03:36:47;13.20;;;8.90;;
5752;SDS011;2901;42.140;24.760;2023-12-28T03:39:12;10.13;;;8.13;;
5752;SDS011;2901;42.140;24.760;2023-12-28T03:41:37;10.20;;;8.57;;
5752;SDS011;2901;42.140;24.760;2023-12-28T03:44:03;12.47;;;8.70;;
5752;SDS011;2901;42.140;24.760;2023-12-28T03:46:28;14.10;;;8.77;;
5752;SDS011;2901;42.140;24.760;2023-12-28T03:48:54;12.50;;;9.37;;
5752;SDS011;2901;42.140;24.760;2023-12-28T03:51:19;12.43;;;8.83;;
5752;SDS011;2901;42.140;24.760;2023-12-28T03:53:45;11.80;;;8.53;;
5752;SDS011;2901;42.140;24.760;2023-12-28T03:56:20;11.40;;;8.90;;
5752;SDS011;2901;42.140;24.760;2023-12-28T03:58:47;17.40;;;9.50;;
5752;SDS011;2901;42.140;24.760;2023-12-28T04:01:12;23.37;;;10.23;;
5752;SDS011;2901;42.140;24.760;2023-12-28T04:03:38;16.43;;;8.67;;
5752;SDS011;2901;42.140;24.760;2023-12-28T04:06:03;21.20;;;9.37;;
5752;SDS011;2901;42.140;24.760;2023-12-28T04:08:29;8.87;;;7.13;;
5752;SDS011;2901;42.140;24.760;2023-12-28T04:10:54;13.63;;;7.73;;
5752;SDS011;2901;42.140;24.760;2023-12-28T04:13:20;9.77;;;8.37;;
5752;SDS011;2901;42.140;24.760;2023-12-28T04:15:45;8.50;;;7.30;;
5752;SDS011;2901;42.140;24.760;2023-12-28T04:18:11;13.13;;;8.93;;
5752;SDS011;2901;42.140;24.760;2023-12-28T04:20:36;13.00;;;9.57;;
5752;SDS011;2901;42.140;24.760;2023-12-28T04:23:01;11.53;;;10.20;;
5752;SDS011;2901;42.140;24.760;2023-12-28T04:25:27;13.67;;;8.10;;
5752;SDS011;2901;42.140;24.760;2023-12-28T04:27:52;8.07;;;7.33;;
5752;SDS011;2901;42.140;24.760;2023-12-28T04:30:17;15.83;;;8.30;;
5752;SDS011;2901;42.140;24.760;2023-12-28T04:32:43;13.27;;;8.47;;
5752;SDS011;2901;42.140;24.760;2023-12-28T04:35:08;11.20;;;8.10;;
5752;SDS011;2901;42.140;24.760;2023-12-28T04:37:34;18.13;;;9.90;;
5752;SDS011;2901;42.140;24.760;2023-12-28T04:40:00;11.83;;;7.00;;
5752;SDS011;2901;42.140;24.760;2023-12-28T04:42:25;9.20;;;6.77;;
5752;SDS011;2901;42.140;24.760;2023-12-28T04:44:51;6.83;;;6.13;;
5752;SDS011;2901;42.140;24.760;2023-12-28T04:47:16;10.40;;;6.73;;
5752;SDS011;2901;42.140;24.760;2023-12-28T04:49:41;6.00;;;5.60;;
5752;SDS011;2901;42.140;24.760;2023-12-28T04:52:07;6.70;;;6.00;;
5752;SDS011;2901;42.140;24.760;2023-12-28T04:54:32;6.87;;;6.30;;
5752;SDS011;2901;42.140;24.760;2023-12-28T04:56:58;7.53;;;6.13;;
5752;SDS011;2901;42.140;24.760;2023-12-28T04:59:24;6.30;;;5.73;;
5752;SDS011;2901;42.140;24.760;2023-12-28T05:01:49;6.63;;;6.20;;
5752;SDS011;2901;42.140;24.760;2023-12-28T05:04:15;6.37;;;5.63;;
5752;SDS011;2901;42.140;24.760;2023-12-28T05:06:40;6.23;;;5.60;;
5752;SDS011;2901;42.140;24.760;2023-12-28T05:09:06;8.63;;;5.37;;
5752;SDS011;2901;42.140;24.760;2023-12-28T05:11:31;5.20;;;4.80;;
5752;SDS011;2901;42.140;24.760;2023-12-28T05:13:57;9.23;;;5.93;;
5752;SDS011;2901;42.140;24.760;2023-12-28T05:16:22;7.80;;;4.83;;
5752;SDS011;2901;42.140;24.760;2023-12-28T05:18:47;6.13;;;5.63;;
5752;SDS011;2901;42.140;24.760;2023-12-28T05:21:13;5.27;;;4.87;;
5752;SDS011;2901;42.140;24.760;2023-12-28T05:23:39;6.07;;;5.47;;
5752;SDS011;2901;42.140;24.760;2023-12-28T05:26:04;5.10;;;4.80;;
5752;SDS011;2901;42.140;24.760;2023-12-28T05:28:31;5.10;;;4.67;;
5752;SDS011;2901;42.140;24.760;2023-12-28T05:30:56;6.80;;;4.47;;
5752;SDS011;2901;42.140;24.760;2023-12-28T05:33:24;4.47;;;4.07;;
5752;SDS011;2901;42.140;24.760;2023-12-28T05:35:50;6.27;;;4.73;;
5752;SDS011;2901;42.140;24.760;2023-12-28T05:38:15;5.30;;;4.43;;
5752;SDS011;2901;42.140;24.760;2023-12-28T05:40:40;4.50;;;4.10;;
5752;SDS011;2901;42.140;24.760;2023-12-28T05:43:06;5.00;;;4.50;;
5752;SDS011;2901;42.140;24.760;2023-12-28T05:45:31;7.10;;;4.73;;
5752;SDS011;2901;42.140;24.760;2023-12-28T05:47:57;8.43;;;4.70;;
5752;SDS011;2901;42.140;24.760;2023-12-28T05:50:22;5.87;;;4.67;;
5752;SDS011;2901;42.140;24.760;2023-12-28T05:52:47;4.40;;;4.00;;
5752;SDS011;2901;42.140;24.760;2023-12-28T05:55:13;8.03;;;4.00;;
5752;SDS011;2901;42.140;24.760;2023-12-28T05:57:38;6.67;;;4.10;;
5752;SDS011;2901;42.140;24.760;2023-12-28T06:00:04;5.63;;;4.23;;
5752;SDS011;2901;42.140;24.760;2023-12-28T06:02:31;4.30;;;3.90;;
5752;SDS011;2901;42.140;24.760;2023-12-28T06:04:56;5.93;;;3.77;;
5752;SDS011;2901;42.140;24.760;2023-12-28T06:07:22;12.67;;;4.17;;
5752;SDS011;2901;42.140;24.760;2023-12-28T06:09:47;5.00;;;4.63;;
5752;SDS011;2901;42.140;24.760;2023-12-28T06:12:13;11.40;;;5.17;;
5752;SDS011;2901;42.140;24.760;2023-12-28T06:14:38;7.90;;;4.83;;
5752;SDS011;2901;42.140;24.760;2023-12-28T06:17:04;8.00;;;5.50;;
5752;SDS011;2901;42.140;24.760;2023-12-28T06:19:29;12.20;;;6.27;;
5752;SDS011;2901;42.140;24.760;2023-12-28T06:21:55;15.63;;;6.60;;
5752;SDS011;2901;42.140;24.760;2023-12-28T06:24:20;5.73;;;5.23;;
5752;SDS011;2901;42.140;24.760;2023-12-28T06:26:46;8.53;;;6.33;;
5752;SDS011;2901;42.140;24.760;2023-12-28T06:29:11;7.27;;;5.27;;
5752;SDS011;2901;42.140;24.760;2023-12-28T06:31:37;8.10;;;6.23;;
5752;SDS011;2901;42.140;24.760;2023-12-28T06:34:05;14.10;;;6.47;;
5752;SDS011;2901;42.140;24.760;2023-12-28T06:36:31;7.37;;;6.07;;
5752;SDS011;2901;42.140;24.760;2023-12-28T06:38:57;8.83;;;6.17;;
5752;SDS011;2901;42.140;24.760;2023-12-28T06:41:23;16.27;;;7.30;;
5752;SDS011;2901;42.140;24.760;2023-12-28T06:43:49;15.10;;;6.53;;
5752;SDS011;2901;42.140;24.760;2023-12-28T06:46:14;9.07;;;6.60;;
5752;SDS011;2901;42.140;24.760;2023-12-28T06:48:40;9.93;;;6.67;;
5752;SDS011;2901;42.140;24.760;2023-12-28T06:51:06;11.43;;;7.10;;
5752;SDS011;2901;42.140;24.760;2023-12-28T06:53:32;11.83;;;7.90;;
5752;SDS011;2901;42.140;24.760;2023-12-28T06:55:57;8.47;;;7.13;;
5752;SDS011;2901;42.140;24.760;2023-12-28T06:58:22;10.73;;;9.03;;
5752;SDS011;2901;42.140;24.760;2023-12-28T07:00:48;9.40;;;7.50;;
5752;SDS011;2901;42.140;24.760;2023-12-28T07:03:13;9.73;;;7.77;;
5752;SDS011;2901;42.140;24.760;2023-12-28T07:05:39;18.93;;;7.87;;
5752;SDS011;2901;42.140;24.760;2023-12-28T07:08:04;11.40;;;8.33;;
5752;SDS011;2901;42.140;24.760;2023-12-28T07:10:30;9.10;;;8.20;;
5752;SDS011;2901;42.140;24.760;2023-12-28T07:12:55;8.77;;;7.83;;
5752;SDS011;2901;42.140;24.760;2023-12-28T07:15:20;9.70;;;8.30;;
5752;SDS011;2901;42.140;24.760;2023-12-28T07:17:46;9.03;;;8.23;;
5752;SDS011;2901;42.140;24.760;2023-12-28T07:20:11;11.97;;;9.83;;
5752;SDS011;2901;42.140;24.760;2023-12-28T07:22:37;17.30;;;9.10;;
5752;SDS011;2901;42.140;24.760;2023-12-28T07:25:06;10.93;;;9.40;;
5752;SDS011;2901;42.140;24.760;2023-12-28T07:27:32;16.67;;;9.88;;
5752;SDS011;2901;42.140;24.760;2023-12-28T07:29:59;11.23;;;9.53;;
5752;SDS011;2901;42.140;24.760;2023-12-28T07:32:25;11.63;;;9.47;;
5752;SDS011;2901;42.140;24.760;2023-12-28T07:34:52;16.00;;;9.60;;
5752;SDS011;2901;42.140;24.760;2023-12-28T07:37:18;11.80;;;9.70;;
5752;SDS011;2901;42.140;24.760;2023-12-28T07:39:43;16.67;;;9.57;;
5752;SDS011;2901;42.140;24.760;2023-12-28T07:42:09;15.90;;;10.93;;
5752;SDS011;2901;42.140;24.760;2023-12-28T07:44:34;19.63;;;11.27;;
5752;SDS011;2901;42.140;24.760;2023-12-28T07:47:00;22.53;;;10.93;;
5752;SDS011;2901;42.140;24.760;2023-12-28T07:49:26;23.53;;;12.13;;
5752;SDS011;2901;42.140;24.760;2023-12-28T07:51:51;16.60;;;11.60;;
5752;SDS011;2901;42.140;24.760;2023-12-28T07:54:16;21.52;;;12.55;;
5752;SDS011;2901;42.140;24.760;2023-12-28T07:56:42;18.53;;;11.87;;
5752;SDS011;2901;42.140;24.760;2023-12-28T07:59:07;16.77;;;12.05;;
5752;SDS011;2901;42.140;24.760;2023-12-28T08:01:34;17.55;;;11.10;;
5752;SDS011;2901;42.140;24.760;2023-12-28T08:03:59;13.10;;;10.20;;
5752;SDS011;2901;42.140;24.760;2023-12-28T08:06:26;12.68;;;7.68;;
5752;SDS011;2901;42.140;24.760;2023-12-28T08:08:52;9.35;;;8.52;;
5752;SDS011;2901;42.140;24.760;2023-12-28T08:11:18;11.53;;;6.37;;
5752;SDS011;2901;42.140;24.760;2023-12-28T08:13:44;7.78;;;6.95;;
5752;SDS011;2901;42.140;24.760;2023-12-28T08:16:09;11.73;;;7.72;;
5752;SDS011;2901;42.140;24.760;2023-12-28T08:18:35;7.28;;;6.72;;
5752;SDS011;2901;42.140;24.760;2023-12-28T08:21:00;8.75;;;7.20;;
5752;SDS011;2901;42.140;24.760;2023-12-28T08:23:26;7.38;;;6.88;;
5752;SDS011;2901;42.140;24.760;2023-12-28T08:25:51;10.05;;;8.45;;
5752;SDS011;2901;42.140;24.760;2023-12-28T08:28:16;18.00;;;16.08;;
5752;SDS011;2901;42.140;24.760;2023-12-28T08:30:42;13.98;;;8.88;;
5752;SDS011;2901;42.140;24.760;2023-12-28T08:33:07;12.90;;;9.68;;
5752;SDS011;2901;42.140;24.760;2023-12-28T08:35:33;14.85;;;9.90;;
5752;SDS011;2901;42.140;24.760;2023-12-28T08:37:58;11.77;;;8.93;;
5752;SDS011;2901;42.140;24.760;2023-12-28T08:40:24;15.60;;;8.95;;
5752;SDS011;2901;42.140;24.760;2023-12-28T08:42:50;12.15;;;8.68;;
5752;SDS011;2901;42.140;24.760;2023-12-28T08:45:16;9.95;;;9.05;;
5752;SDS011;2901;42.140;24.760;2023-12-28T08:47:41;10.10;;;9.20;;
5752;SDS011;2901;42.140;24.760;2023-12-28T08:50:06;15.00;;;9.73;;
5752;SDS011;2901;42.140;24.760;2023-12-28T08:52:32;11.43;;;8.73;;
5752;SDS011;2901;42.140;24.760;2023-12-28T08:54:57;15.07;;;10.02;;
5752;SDS011;2901;42.140;24.760;2023-12-28T08:57:23;13.07;;;9.20;;
5752;SDS011;2901;42.140;24.760;2023-12-28T08:59:49;11.98;;;7.22;;
5752;SDS011;2901;42.140;24.760;2023-12-28T09:02:14;9.73;;;7.15;;
5752;SDS011;2901;42.140;24.760;2023-12-28T09:04:39;7.07;;;6.38;;
5752;SDS011;2901;42.140;24.760;2023-12-28T09:07:05;8.52;;;7.70;;
5752;SDS011;2901;42.140;24.760;2023-12-28T09:09:30;8.70;;;7.78;;
5752;SDS011;2901;42.140;24.760;2023-12-28T09:11:56;8.60;;;6.55;;
5752;SDS011;2901;42.140;24.760;2023-12-28T09:14:21;12.55;;;7.90;;
5752;SDS011;2901;42.140;24.760;2023-12-28T09:16:47;27.95;;;10.50;;
5752;SDS011;2901;42.140;24.760;2023-12-28T09:19:12;9.05;;;7.45;;
5752;SDS011;2901;42.140;24.760;2023-12-28T09:21:38;9.23;;;7.97;;
5752;SDS011;2901;42.140;24.760;2023-12-28T09:24:03;9.02;;;7.38;;
5752;SDS011;2901;42.140;24.760;2023-12-28T09:26:28;16.42;;;8.13;;
5752;SDS011;2901;42.140;24.760;2023-12-28T09:28:54;15.52;;;7.82;;
5752;SDS011;2901;42.140;24.760;2023-12-28T09:31:20;25.35;;;8.25;;
5752;SDS011;2901;42.140;24.760;2023-12-28T09:33:45;19.13;;;8.50;;
5752;SDS011;2901;42.140;24.760;2023-12-28T09:36:11;11.40;;;8.07;;
5752;SDS011;2901;42.140;24.760;2023-12-28T09:38:39;19.02;;;8.00;;
5752;SDS011;2901;42.140;24.760;2023-12-28T09:41:09;8.50;;;7.25;;
5752;SDS011;2901;42.140;24.760;2023-12-28T09:44:00;15.20;;;8.32;;
5752;SDS011;2901;42.140;24.760;2023-12-28T09:46:33;12.55;;;7.75;;
5752;SDS011;2901;42.140;24.760;2023-12-28T09:49:00;11.75;;;8.52;;
5752;SDS011;2901;42.140;24.760;2023-12-28T09:51:26;8.85;;;7.05;;
5752;SDS011;2901;42.140;24.760;2023-12-28T09:53:52;19.55;;;9.48;;
5752;SDS011;2901;42.140;24.760;2023-12-28T09:56:18;18.98;;;8.65;;
5752;SDS011;2901;42.140;24.760;2023-12-28T09:58:44;17.35;;;8.15;;
5752;SDS011;2901;42.140;24.760;2023-12-28T10:01:13;40.75;;;10.85;;
5752;SDS011;2901;42.140;24.760;2023-12-28T10:03:39;17.50;;;9.02;;
5752;SDS011;2901;42.140;24.760;2023-12-28T10:06:05;29.75;;;11.80;;
5752;SDS011;2901;42.140;24.760;2023-12-28T10:08:30;9.70;;;8.85;;
5752;SDS011;2901;42.140;24.760;2023-12-28T10:10:56;12.98;;;7.70;;
5752;SDS011;2901;42.140;24.760;2023-12-28T10:13:23;10.82;;;8.13;;
5752;SDS011;2901;42.140;24.760;2023-12-28T10:15:50;13.30;;;8.75;;
5752;SDS011;2901;42.140;24.760;2023-12-28T10:18:17;9.65;;;7.95;;
5752;SDS011;2901;42.140;24.760;2023-12-28T10:20:51;12.07;;;7.65;;
5752;SDS011;2901;42.140;24.760;2023-12-28T10:23:18;13.43;;;7.47;;
5752;SDS011;2901;42.140;24.760;2023-12-28T10:25:46;17.77;;;8.73;;
5752;SDS011;2901;42.140;24.760;2023-12-28T10:28:11;8.70;;;7.82;;
5752;SDS011;2901;42.140;24.760;2023-12-28T10:30:37;10.20;;;7.55;;
5752;SDS011;2901;42.140;24.760;2023-12-28T10:33:07;16.42;;;8.52;;
5752;SDS011;2901;42.140;24.760;2023-12-28T10:35:32;9.25;;;7.97;;
5752;SDS011;2901;42.140;24.760;2023-12-28T10:37:59;10.77;;;8.55;;
5752;SDS011;2901;42.140;24.760;2023-12-28T10:40:26;23.65;;;8.90;;
5752;SDS011;2901;42.140;24.760;2023-12-28T10:42:55;9.68;;;8.13;;
5752;SDS011;2901;42.140;24.760;2023-12-28T10:45:33;21.05;;;8.90;;
5752;SDS011;2901;42.140;24.760;2023-12-28T10:48:06;10.10;;;7.20;;
5752;SDS011;2901;42.140;24.760;2023-12-28T10:50:41;8.55;;;7.70;;
5752;SDS011;2901;42.140;24.760;2023-12-28T10:53:11;10.55;;;7.93;;
5752;SDS011;2901;42.140;24.760;2023-12-28T10:58:40;8.40;;;7.80;;
5752;SDS011;2901;42.140;24.760;2023-12-28T11:01:14;10.25;;;8.52;;
5752;SDS011;2901;42.140;24.760;2023-12-28T11:03:47;11.73;;;7.93;;
5752;SDS011;2901;42.140;24.760;2023-12-28T11:06:22;17.75;;;8.15;;
5752;SDS011;2901;42.140;24.760;2023-12-28T11:08:51;10.82;;;8.55;;
5752;SDS011;2901;42.140;24.760;2023-12-28T11:11:19;17.65;;;9.60;;
5752;SDS011;2901;42.140;24.760;2023-12-28T11:13:46;15.05;;;9.27;;
5752;SDS011;2901;42.140;24.760;2023-12-28T11:16:13;15.30;;;8.55;;
5752;SDS011;2901;42.140;24.760;2023-12-28T11:18:39;12.45;;;8.32;;
5752;SDS011;2901;42.140;24.760;2023-12-28T11:21:05;14.60;;;10.02;;
5752;SDS011;2901;42.140;24.760;2023-12-28T11:23:31;10.95;;;8.95;;
5752;SDS011;2901;42.140;24.760;2023-12-28T11:25:57;11.13;;;8.48;;
5752;SDS011;2901;42.140;24.760;2023-12-28T11:28:23;14.40;;;9.13;;
5752;SDS011;2901;42.140;24.760;2023-12-28T11:30:49;15.65;;;8.82;;
5752;SDS011;2901;42.140;24.760;2023-12-28T11:33:17;16.15;;;9.25;;
5752;SDS011;2901;42.140;24.760;2023-12-28T11:35:42;18.55;;;8.95;;
5752;SDS011;2901;42.140;24.760;2023-12-28T11:38:08;14.60;;;8.77;;
5752;SDS011;2901;42.140;24.760;2023-12-28T11:40:40;15.05;;;8.88;;
5752;SDS011;2901;42.140;24.760;2023-12-28T11:43:18;9.05;;;8.15;;
5752;SDS011;2901;42.140;24.760;2023-12-28T11:45:49;9.90;;;8.65;;
5752;SDS011;2901;42.140;24.760;2023-12-28T11:48:27;21.40;;;8.05;;
5752;SDS011;2901;42.140;24.760;2023-12-28T11:50:57;16.30;;;9.30;;
5752;SDS011;2901;42.140;24.760;2023-12-28T11:53:24;11.00;;;8.20;;
5752;SDS011;2901;42.140;24.760;2023-12-28T11:55:50;15.48;;;8.27;;
5752;SDS011;2901;42.140;24.760;2023-12-28T11:58:18;16.20;;;8.02;;
5752;SDS011;2901;42.140;24.760;2023-12-28T12:00:44;16.80;;;8.60;;
5752;SDS011;2901;42.140;24.760;2023-12-28T12:03:10;15.13;;;8.18;;
5752;SDS011;2901;42.140;24.760;2023-12-28T12:05:36;20.02;;;8.70;;
5752;SDS011;2901;42.140;24.760;2023-12-28T12:08:02;11.35;;;7.57;;
5752;SDS011;2901;42.140;24.760;2023-12-28T12:10:28;15.25;;;8.40;;
5752;SDS011;2901;42.140;24.760;2023-12-28T12:12:53;19.52;;;9.32;;
5752;SDS011;2901;42.140;24.760;2023-12-28T12:15:19;16.65;;;8.13;;
5752;SDS011;2901;42.140;24.760;2023-12-28T12:17:45;13.10;;;9.15;;
5752;SDS011;2901;42.140;24.760;2023-12-28T12:20:11;16.70;;;8.88;;
5752;SDS011;2901;42.140;24.760;2023-12-28T12:22:36;17.00;;;8.25;;
5752;SDS011;2901;42.140;24.760;2023-12-28T12:25:02;14.57;;;8.40;;
5752;SDS011;2901;42.140;24.760;2023-12-28T12:27:30;16.35;;;8.65;;
5752;SDS011;2901;42.140;24.760;2023-12-28T12:29:55;13.32;;;8.82;;
5752;SDS011;2901;42.140;24.760;2023-12-28T12:32:21;17.77;;;8.13;;
5752;SDS011;2901;42.140;24.760;2023-12-28T12:34:47;14.50;;;8.05;;
5752;SDS011;2901;42.140;24.760;2023-12-28T12:37:13;16.80;;;9.13;;
5752;SDS011;2901;42.140;24.760;2023-12-28T12:39:39;12.52;;;8.25;;
5752;SDS011;2901;42.140;24.760;2023-12-28T12:42:05;10.98;;;7.15;;
5752;SDS011;2901;42.140;24.760;2023-12-28T12:44:31;20.25;;;8.07;;
5752;SDS011;2901;42.140;24.760;2023-12-28T12:46:57;10.80;;;8.50;;
5752;SDS011;2901;42.140;24.760;2023-12-28T12:49:26;17.88;;;9.80;;
5752;SDS011;2901;42.140;24.760;2023-12-28T12:51:52;11.98;;;8.43;;
5752;SDS011;2901;42.140;24.760;2023-12-28T12:54:18;13.38;;;7.68;;
5752;SDS011;2901;42.140;24.760;2023-12-28T12:56:46;15.05;;;7.97;;
5752;SDS011;2901;42.140;24.760;2023-12-28T12:59:12;11.65;;;8.20;;
5752;SDS011;2901;42.140;24.760;2023-12-28T13:01:43;12.55;;;8.27;;
5752;SDS011;2901;42.140;24.760;2023-12-28T13:04:08;24.92;;;8.50;;
5752;SDS011;2901;42.140;24.760;2023-12-28T13:06:34;23.48;;;8.70;;
5752;SDS011;2901;42.140;24.760;2023-12-28T13:08:59;15.13;;;7.90;;
5752;SDS011;2901;42.140;24.760;2023-12-28T13:11:25;9.60;;;7.55;;
5752;SDS011;2901;42.140;24.760;2023-12-28T13:13:51;13.48;;;6.95;;
5752;SDS011;2901;42.140;24.760;2023-12-28T13:16:20;11.02;;;7.95;;
5752;SDS011;2901;42.140;24.760;2023-12-28T13:18:45;12.80;;;7.57;;
5752;SDS011;2901;42.140;24.760;2023-12-28T13:21:10;18.95;;;8.85;;
5752;SDS011;2901;42.140;24.760;2023-12-28T13:23:36;14.35;;;7.68;;
5752;SDS011;2901;42.140;24.760;2023-12-28T13:26:01;10.93;;;7.72;;
5752;SDS011;2901;42.140;24.760;2023-12-28T13:28:27;12.25;;;7.47;;
5752;SDS011;2901;42.140;24.760;2023-12-28T13:30:52;18.38;;;9.80;;
5752;SDS011;2901;42.140;24.760;2023-12-28T13:33:20;12.73;;;7.50;;
5752;SDS011;2901;42.140;24.760;2023-12-28T13:35:46;10.90;;;8.70;;
5752;SDS011;2901;42.140;24.760;2023-12-28T13:38:11;15.90;;;8.55;;
5752;SDS011;2901;42.140;24.760;2023-12-28T13:40:37;11.45;;;7.22;;
5752;SDS011;2901;42.140;24.760;2023-12-28T13:43:02;21.08;;;8.75;;
5752;SDS011;2901;42.140;24.760;2023-12-28T13:45:28;18.98;;;8.10;;
5752;SDS011;2901;42.140;24.760;2023-12-28T13:47:53;22.70;;;8.90;;
5752;SDS011;2901;42.140;24.760;2023-12-28T13:50:18;13.23;;;7.97;;
5752;SDS011;2901;42.140;24.760;2023-12-28T13:52:45;10.07;;;8.13;;
5752;SDS011;2901;42.140;24.760;2023-12-28T13:55:10;15.38;;;8.57;;
5752;SDS011;2901;42.140;24.760;2023-12-28T13:57:36;13.98;;;8.38;;
5752;SDS011;2901;42.140;24.760;2023-12-28T14:00:02;9.55;;;7.78;;
5752;SDS011;2901;42.140;24.760;2023-12-28T14:02:28;11.05;;;8.23;;
5752;SDS011;2901;42.140;24.760;2023-12-28T14:04:53;18.15;;;9.13;;
5752;SDS011;2901;42.140;24.760;2023-12-28T14:07:21;13.88;;;8.95;;
5752;SDS011;2901;42.140;24.760;2023-12-28T14:09:46;22.00;;;8.63;;
5752;SDS011;2901;42.140;24.760;2023-12-28T14:12:12;23.73;;;10.95;;
5752;SDS011;2901;42.140;24.760;2023-12-28T14:14:37;10.73;;;8.98;;
5752;SDS011;2901;42.140;24.760;2023-12-28T14:17:03;16.67;;;10.30;;
5752;SDS011;2901;42.140;24.760;2023-12-28T14:19:29;12.93;;;11.13;;
5752;SDS011;2901;42.140;24.760;2023-12-28T14:21:55;11.52;;;9.23;;
5752;SDS011;2901;42.140;24.760;2023-12-28T14:24:21;18.13;;;10.38;;
5752;SDS011;2901;42.140;24.760;2023-12-28T14:26:46;13.75;;;10.50;;
5752;SDS011;2901;42.140;24.760;2023-12-28T14:29:16;22.08;;;11.93;;
5752;SDS011;2901;42.140;24.760;2023-12-28T14:31:42;15.75;;;10.63;;
5752;SDS011;2901;42.140;24.760;2023-12-28T14:34:09;23.08;;;10.70;;
5752;SDS011;2901;42.140;24.760;2023-12-28T14:36:35;11.95;;;10.10;;
5752;SDS011;2901;42.140;24.760;2023-12-28T14:39:03;16.05;;;9.85;;
5752;SDS011;2901;42.140;24.760;2023-12-28T14:41:33;19.42;;;9.82;;
5752;SDS011;2901;42.140;24.760;2023-12-28T14:43:59;18.05;;;10.02;;
5752;SDS011;2901;42.140;24.760;2023-12-28T14:46:25;14.93;;;9.50;;
5752;SDS011;2901;42.140;24.760;2023-12-28T14:48:50;10.68;;;9.68;;
5752;SDS011;2901;42.140;24.760;2023-12-28T14:51:16;20.63;;;11.93;;
5752;SDS011;2901;42.140;24.760;2023-12-28T14:53:42;15.00;;;12.32;;